Time;durP1;ratioP1;P1;durP2;ratioP2;P2;SDS_P1;SDS_P2;PMS_P1;PMS_P2;Temp;Humidity;BMP_temperature;BMP_pressure;BME280_temperature;BME280_humidity;BME280_pressure;Samples;Min_cycle;Max_cycle;Signal;HPM_P1;HPM_P2
2024/02/24 00:02:27;;;;;;;0.30;0.30;;;21.20;44.20;;;;;;10351872;28;20042;-60
2024/02/24 00:07:28;;;;;;;0.40;0.40;;;21.10;44.20;;;;;;10349899;28;20401;-58
2024/02/24 00:12:30;;;;;;;0.35;0.35;;;21.20;44.20;;;;;;10347802;28;20393;-60
2024/02/24 00:17:33;;;;;;;0.40;0.40;;;21.10;44.00;;;;;;10350999;28;20056;-60
2024/02/24 00:22:35;;;;;;;0.52;0.30;;;21.20;44.10;;;;;;10355410;28;20057;-59
2024/02/24 00:27:37;;;;;;;0.47;0.38;;;21.00;44.20;;;;;;10360120;28;20046;-59
2024/02/24 00:32:40;;;;;;;0.38;0.38;;;21.00;44.20;;;;;;10362767;28;20043;-58
2024/02/24 00:37:41;;;;;;;0.40;0.30;;;21.10;44.10;;;;;;10365521;28;20048;-55
2024/02/24 00:42:44;;;;;;;0.20;0.20;;;21.00;44.00;;;;;;10362226;28;20046;-56
2024/02/24 00:47:47;;;;;;;0.30;0.30;;;21.00;44.10;;;;;;10353394;28;20519;-59
2024/02/24 00:52:48;;;;;;;0.30;0.30;;;20.90;44.20;;;;;;10357248;28;20522;-57
2024/02/24 00:57:50;;;;;;;0.40;0.40;;;20.90;44.10;;;;;;10352084;28;20467;-59
2024/02/24 01:02:53;;;;;;;0.40;0.40;;;20.90;44.10;;;;;;10350741;28;20046;-59
2024/02/24 01:07:56;;;;;;;0.30;0.30;;;20.80;44.20;;;;;;10355283;28;20038;-59
2024/02/24 01:12:57;;;;;;;0.68;0.30;;;20.80;44.50;;;;;;10354998;28;20046;-60
2024/02/24 01:18:00;;;;;;;0.30;0.30;;;20.80;44.30;;;;;;10356052;28;20042;-59
2024/02/24 01:23:02;;;;;;;0.57;0.40;;;20.80;44.30;;;;;;10354425;28;20439;-59
2024/02/24 01:28:05;;;;;;;0.30;0.30;;;20.70;44.20;;;;;;10348961;28;20056;-60
2024/02/24 01:33:09;;;;;;;0.30;0.30;;;20.70;44.40;;;;;;10347740;28;20077;-59
2024/02/24 01:38:11;;;;;;;0.30;0.30;;;20.60;44.50;;;;;;10354479;28;20507;-59
2024/02/24 01:43:25;;;;;;;0.30;0.30;;;20.40;44.70;;;;;;10355984;28;20436;-57
2024/02/24 01:48:28;;;;;;;0.30;0.30;;;20.50;44.60;;;;;;10355867;28;20042;-58
2024/02/24 01:53:31;;;;;;;0.30;0.30;;;20.50;44.50;;;;;;10356194;28;20050;-59
2024/02/24 01:58:33;;;;;;;0.32;0.30;;;20.50;44.40;;;;;;10358089;28;20567;-59
2024/02/24 02:03:36;;;;;;;0.35;0.35;;;20.50;44.50;;;;;;10350675;28;20061;-60
2024/02/24 02:08:37;;;;;;;0.32;0.32;;;20.50;44.40;;;;;;10347422;28;20046;-57
2024/02/24 02:13:39;;;;;;;0.30;0.30;;;20.30;44.70;;;;;;10344957;28;20053;-58
2024/02/24 02:18:42;;;;;;;0.30;0.30;;;20.20;44.70;;;;;;10349245;28;20046;-59
2024/02/24 02:23:45;;;;;;;0.50;0.30;;;20.30;44.70;;;;;;10354254;28;20405;-59
2024/02/24 02:28:46;;;;;;;0.28;0.28;;;20.30;44.70;;;;;;10351404;28;20046;-58
2024/02/24 02:33:48;;;;;;;0.30;0.30;;;20.30;44.60;;;;;;10347633;28;20052;-59
2024/02/24 02:38:51;;;;;;;0.30;0.30;;;20.30;44.60;;;;;;10353241;28;20052;-59
2024/02/24 02:43:52;;;;;;;0.38;0.30;;;20.20;44.80;;;;;;10350808;28;20165;-61
2024/02/24 02:48:54;;;;;;;0.50;0.40;;;20.10;44.70;;;;;;10349873;28;20056;-59
2024/02/24 02:53:57;;;;;;;0.30;0.30;;;20.00;44.90;;;;;;10360752;28;20058;-59
2024/02/24 02:58:59;;;;;;;1.85;0.30;;;20.10;44.70;;;;;;10355422;28;20050;-58
2024/02/24 03:04:00;;;;;;;0.50;0.40;;;20.00;44.80;;;;;;10358861;28;20061;-59
2024/02/24 03:09:04;;;;;;;0.50;0.30;;;20.00;44.80;;;;;;10355747;28;20053;-58
2024/02/24 03:14:05;;;;;;;0.60;0.40;;;20.10;44.50;;;;;;10353340;28;20042;-59
2024/02/24 03:19:08;;;;;;;0.40;0.40;;;20.00;44.70;;;;;;10347923;28;20693;-60
2024/02/24 03:24:11;;;;;;;0.30;0.30;;;19.90;45.10;;;;;;10342950;28;20050;-59
2024/02/24 03:29:13;;;;;;;0.40;0.40;;;19.90;44.90;;;;;;10344432;28;20070;-56
2024/02/24 03:34:15;;;;;;;0.30;0.30;;;19.80;44.90;;;;;;10353527;28;20160;-60
2024/02/24 03:39:18;;;;;;;0.22;0.22;;;19.90;44.70;;;;;;10349353;28;20052;-59
2024/02/24 03:44:20;;;;;;;0.30;0.30;;;19.90;44.70;;;;;;10350473;28;20050;-58
2024/02/24 03:49:22;;;;;;;0.30;0.30;;;19.90;45.00;;;;;;10347729;28;20054;-59
2024/02/24 03:54:25;;;;;;;0.30;0.30;;;19.90;44.80;;;;;;10354828;28;20045;-58
2024/02/24 03:59:27;;;;;;;0.25;0.25;;;19.80;44.80;;;;;;10358646;28;20041;-59
2024/02/24 04:04:29;;;;;;;0.35;0.35;;;19.80;44.80;;;;;;10362202;28;20064;-59
2024/02/24 04:09:31;;;;;;;0.30;0.30;;;19.40;45.80;;;;;;10359679;28;20056;-59
2024/02/24 04:14:33;;;;;;;0.30;0.30;;;19.40;46.50;;;;;;10364552;28;20049;-58
2024/02/24 04:19:37;;;;;;;0.30;0.30;;;19.90;45.60;;;;;;10363501;28;20069;-57
2024/02/24 04:24:40;;;;;;;0.30;0.30;;;20.20;45.20;;;;;;10356341;28;20045;-58
2024/02/24 04:29:42;;;;;;;0.30;0.30;;;20.30;44.90;;;;;;10362422;28;20128;-57
2024/02/24 04:34:43;;;;;;;0.38;0.35;;;20.50;44.70;;;;;;10359932;28;20066;-58
2024/02/24 04:39:46;;;;;;;0.30;0.30;;;20.70;44.40;;;;;;10365403;28;20048;-59
2024/02/24 04:44:49;;;;;;;0.43;0.40;;;20.80;44.00;;;;;;10360193;28;20038;-60
2024/02/24 04:49:51;;;;;;;0.38;0.38;;;20.70;44.10;;;;;;10358236;28;20053;-58
2024/02/24 04:54:54;;;;;;;0.40;0.30;;;20.70;44.20;;;;;;10356998;28;20076;-58
2024/02/24 04:59:56;;;;;;;0.50;0.30;;;20.70;44.10;;;;;;10356023;28;20097;-59
2024/02/24 05:04:57;;;;;;;0.43;0.32;;;20.70;44.10;;;;;;10355917;28;20038;-59
2024/02/24 05:10:00;;;;;;;0.40;0.40;;;20.80;43.90;;;;;;10358819;28;20039;-57
2024/02/24 05:15:02;;;;;;;0.43;0.35;;;20.80;43.90;;;;;;10358481;28;20046;-59
2024/02/24 05:20:04;;;;;;;0.30;0.30;;;20.80;43.80;;;;;;10361201;28;20069;-56
2024/02/24 05:25:08;;;;;;;0.30;0.30;;;20.90;43.90;;;;;;10362931;28;20522;-59
2024/02/24 05:30:10;;;;;;;0.30;0.30;;;20.90;44.10;;;;;;10356517;28;20046;-58
2024/02/24 05:35:12;;;;;;;0.43;0.40;;;20.80;44.20;;;;;;10358415;28;20049;-58
2024/02/24 05:40:17;;;;;;;0.40;0.40;;;20.70;44.40;;;;;;10357674;28;20044;-59
2024/02/24 05:45:19;;;;;;;0.35;0.35;;;20.60;44.60;;;;;;10360875;28;20566;-57
2024/02/24 05:50:20;;;;;;;0.30;0.30;;;20.80;44.60;;;;;;10366718;28;20096;-59
2024/02/24 05:55:23;;;;;;;0.50;0.30;;;21.00;44.40;;;;;;10362330;28;20048;-59
2024/02/24 06:00:25;;;;;;;0.35;0.35;;;21.00;44.30;;;;;;10357888;28;20124;-59
2024/02/24 06:05:26;;;;;;;0.45;0.40;;;21.10;44.30;;;;;;10355336;28;20046;-57
2024/02/24 06:10:29;;;;;;;0.30;0.30;;;21.00;44.40;;;;;;10352734;28;20052;-59
2024/02/24 06:15:31;;;;;;;0.30;0.30;;;21.10;44.40;;;;;;10359461;28;20129;-58
2024/02/24 06:20:32;;;;;;;0.40;0.40;;;21.10;44.50;;;;;;10350506;28;20056;-60
2024/02/24 06:25:35;;;;;;;0.65;0.40;;;21.00;44.40;;;;;;10355026;28;20046;-59
2024/02/24 06:30:37;;;;;;;0.30;0.30;;;21.00;44.60;;;;;;10356327;28;20062;-59
2024/02/24 06:35:38;;;;;;;0.30;0.30;;;21.00;44.60;;;;;;10363083;28;20046;-58
2024/02/24 06:40:41;;;;;;;0.45;0.35;;;21.10;44.50;;;;;;10359548;28;20050;-59
2024/02/24 06:45:43;;;;;;;0.30;0.30;;;21.30;44.10;;;;;;10355372;28;20496;-60
2024/02/24 06:50:45;;;;;;;0.63;0.40;;;21.20;44.30;;;;;;10348101;28;20528;-58
2024/02/24 06:55:48;;;;;;;0.40;0.22;;;21.10;44.50;;;;;;10356406;28;20829;-59
2024/02/24 07:00:49;;;;;;;0.40;0.30;;;21.00;44.70;;;;;;10362813;28;20049;-58
2024/02/24 07:05:51;;;;;;;0.40;0.40;;;21.10;44.60;;;;;;10360560;28;20049;-58
2024/02/24 07:10:54;;;;;;;0.43;0.35;;;21.20;44.50;;;;;;10361091;28;20080;-58
2024/02/24 07:15:56;;;;;;;0.40;0.40;;;21.20;44.30;;;;;;10347131;28;20067;-59
2024/02/24 07:20:57;;;;;;;0.30;0.30;;;21.20;44.50;;;;;;10349954;28;20045;-59
2024/02/24 07:26:00;;;;;;;0.32;0.30;;;21.10;44.80;;;;;;10350624;28;20044;-55
2024/02/24 07:31:03;;;;;;;0.40;0.30;;;21.20;44.70;;;;;;10357259;28;20663;-53
2024/02/24 07:36:05;;;;;;;0.45;0.40;;;21.30;44.60;;;;;;10361204;28;20041;-54
2024/02/24 07:41:07;;;;;;;0.35;0.35;;;21.30;44.40;;;;;;10365021;28;20050;-55
2024/02/24 07:46:10;;;;;;;0.73;0.40;;;21.10;44.70;;;;;;10364400;28;20045;-57
2024/02/24 07:51:11;;;;;;;0.40;0.30;;;21.20;45.30;;;;;;10366155;28;20038;-56
2024/02/24 07:56:14;;;;;;;0.57;0.40;;;21.20;44.60;;;;;;10361305;28;20161;-57
2024/02/24 08:01:16;;;;;;;0.40;0.40;;;21.30;44.60;;;;;;10355211;28;20053;-57
2024/02/24 08:06:17;;;;;;;0.93;0.40;;;21.20;44.70;;;;;;10360003;28;20038;-52
2024/02/24 08:11:20;;;;;;;0.52;0.40;;;21.30;44.70;;;;;;10365753;28;20518;-57
2024/02/24 08:16:22;;;;;;;0.40;0.40;;;21.20;44.80;;;;;;10365593;28;20511;-54
2024/02/24 08:21:24;;;;;;;0.30;0.30;;;21.30;44.80;;;;;;10362407;28;20050;-55
2024/02/24 08:26:27;;;;;;;0.40;0.40;;;21.30;44.80;;;;;;10359538;28;20042;-56
2024/02/24 08:31:28;;;;;;;0.30;0.30;;;21.30;44.70;;;;;;10352186;28;20522;-55
2024/02/24 08:36:30;;;;;;;0.45;0.40;;;21.30;44.80;;;;;;10350645;28;20492;-56
2024/02/24 08:41:35;;;;;;;0.43;0.40;;;21.30;44.90;;;;;;10357278;28;20408;-58
2024/02/24 08:46:37;;;;;;;0.68;0.40;;;21.40;44.60;;;;;;10355640;28;20049;-54
2024/02/24 08:51:39;;;;;;;0.30;0.30;;;21.40;44.70;;;;;;10359699;28;20046;-59
2024/02/24 08:56:42;;;;;;;0.30;0.30;;;21.40;44.70;;;;;;10365021;28;20046;-57
2024/02/24 09:01:44;;;;;;;0.30;0.30;;;21.40;44.80;;;;;;10361461;28;20516;-56
2024/02/24 09:06:45;;;;;;;0.50;0.43;;;21.40;44.70;;;;;;10362802;28;20522;-58
2024/02/24 09:11:49;;;;;;;0.40;0.40;;;21.40;44.90;;;;;;10359288;28;20061;-59
2024/02/24 09:16:54;;;;;;;1.40;0.40;;;21.50;44.60;;;;;;10359675;28;20088;-60
2024/02/24 09:21:56;;;;;;;0.30;0.30;;;21.40;44.70;;;;;;10355988;28;20448;-58
2024/02/24 09:26:59;;;;;;;0.40;0.40;;;21.50;44.60;;;;;;10351913;28;20125;-62
2024/02/24 09:32:00;;;;;;;0.50;0.50;;;21.50;44.60;;;;;;10356976;28;20046;-59
2024/02/24 09:37:03;;;;;;;0.40;0.40;;;21.40;44.90;;;;;;10357529;28;20042;-60
2024/02/24 09:42:09;;;;;;;0.30;0.30;;;21.50;44.90;;;;;;10351325;28;20428;-60
2024/02/24 09:47:11;;;;;;;0.32;0.30;;;21.60;44.70;;;;;;10353699;28;20038;-57
2024/02/24 09:52:12;;;;;;;0.32;0.30;;;21.60;44.80;;;;;;10350684;28;20046;-59
2024/02/24 09:57:16;;;;;;;0.60;0.40;;;21.50;45.00;;;;;;10354520;28;20066;-60
2024/02/24 10:02:18;;;;;;;0.40;0.35;;;21.60;45.00;;;;;;10358496;28;20050;-57
2024/02/24 10:07:19;;;;;;;0.30;0.30;;;21.70;44.80;;;;;;10361308;28;20037;-59
2024/02/24 10:12:22;;;;;;;0.40;0.40;;;21.80;44.60;;;;;;10360006;28;20052;-59
2024/02/24 10:17:24;;;;;;;0.30;0.30;;;21.80;44.50;;;;;;10359365;28;20141;-59
2024/02/24 10:22:27;;;;;;;0.30;0.30;;;21.80;44.60;;;;;;10356836;28;20049;-58
2024/02/24 10:27:30;;;;;;;0.30;0.30;;;21.90;44.60;;;;;;10358398;28;20394;-58
2024/02/24 10:32:32;;;;;;;0.90;0.50;;;21.90;44.60;;;;;;10356450;28;20046;-59
2024/02/24 10:37:34;;;;;;;0.68;0.50;;;21.90;44.60;;;;;;10353430;28;20500;-59
2024/02/24 10:42:37;;;;;;;0.43;0.40;;;22.10;44.50;;;;;;10355093;28;20052;-60
2024/02/24 10:47:39;;;;;;;0.40;0.40;;;22.00;44.60;;;;;;10360295;28;20041;-57
2024/02/24 10:52:41;;;;;;;0.73;0.40;;;22.00;44.60;;;;;;10358919;28;20053;-58
2024/02/24 10:57:43;;;;;;;0.40;0.40;;;22.10;44.50;;;;;;10355736;28;20048;-58
2024/02/24 11:02:45;;;;;;;0.50;0.40;;;22.10;44.60;;;;;;10351936;28;20042;-59
2024/02/24 11:07:47;;;;;;;0.40;0.40;;;22.10;44.50;;;;;;10359075;28;20045;-58
2024/02/24 11:12:51;;;;;;;0.40;0.40;;;22.10;44.60;;;;;;10354531;28;20050;-59
2024/02/24 11:17:55;;;;;;;0.45;0.40;;;22.10;44.50;;;;;;10353238;28;20042;-60
2024/02/24 11:23:18;;;;;;;0.50;0.50;;;22.10;44.60;;;;;;10360185;28;20042;-60
2024/02/24 11:28:21;;;;;;;0.30;0.30;;;22.20;44.60;;;;;;10350429;28;20061;-58
2024/02/24 11:33:24;;;;;;;0.50;0.40;;;22.20;44.60;;;;;;10360577;28;20038;-59
2024/02/24 11:38:26;;;;;;;0.40;0.40;;;22.20;44.60;;;;;;10349404;28;20516;-58
2024/02/24 11:43:29;;;;;;;0.30;0.30;;;22.20;44.60;;;;;;10348008;28;20452;-59
2024/02/24 11:48:31;;;;;;;0.50;0.47;;;22.20;44.60;;;;;;10343293;28;20045;-58
2024/02/24 11:53:32;;;;;;;0.30;0.30;;;22.20;44.60;;;;;;10349928;28;20420;-58
2024/02/24 11:58:35;;;;;;;0.30;0.30;;;22.20;44.60;;;;;;10352620;28;20042;-59
2024/02/24 12:03:37;;;;;;;0.43;0.43;;;22.30;44.50;;;;;;10353086;28;20052;-58
2024/02/24 12:08:42;;;;;;;0.40;0.40;;;22.30;44.50;;;;;;10351660;28;20408;-59
2024/02/24 12:13:45;;;;;;;0.40;0.40;;;22.30;44.60;;;;;;10356599;28;20459;-57
2024/02/24 12:18:47;;;;;;;0.30;0.30;;;22.40;44.50;;;;;;10357467;28;20054;-57
2024/02/24 12:23:48;;;;;;;0.40;0.40;;;22.40;44.50;;;;;;10359585;28;20046;-59
2024/02/24 12:28:52;;;;;;;0.38;0.38;;;22.40;44.50;;;;;;10361632;28;20042;-58
2024/02/24 12:33:54;;;;;;;0.50;0.40;;;22.40;44.60;;;;;;10362206;28;20389;-60
2024/02/24 12:38:56;;;;;;;0.30;0.30;;;22.40;44.60;;;;;;10360003;28;20070;-59
2024/02/24 12:43:59;;;;;;;0.30;0.30;;;22.40;44.60;;;;;;10357596;28;20070;-60
2024/02/24 12:49:00;;;;;;;0.40;0.30;;;22.40;44.50;;;;;;10362042;28;20046;-60
2024/02/24 12:54:02;;;;;;;0.45;0.45;;;22.50;44.50;;;;;;10360520;28;20057;-58
2024/02/24 12:59:05;;;;;;;0.40;0.40;;;22.40;44.60;;;;;;10357579;28;20129;-59
2024/02/24 13:04:06;;;;;;;0.30;0.30;;;22.50;45.10;;;;;;10356896;28;20046;-52
2024/02/24 13:09:08;;;;;;;0.35;0.35;;;22.50;44.50;;;;;;10353590;28;20038;-56
2024/02/24 13:14:11;;;;;;;0.30;0.30;;;22.50;44.40;;;;;;10359237;28;20102;-56
2024/02/24 13:19:13;;;;;;;0.30;0.30;;;22.50;44.50;;;;;;10352738;28;20053;-55
2024/02/24 13:24:15;;;;;;;0.25;0.25;;;22.50;44.50;;;;;;10353061;28;20049;-56
2024/02/24 13:29:18;;;;;;;0.30;0.30;;;22.60;44.40;;;;;;10354714;28;20081;-55
2024/02/24 13:34:19;;;;;;;0.40;0.40;;;22.60;44.40;;;;;;10358637;28;20052;-55
2024/02/24 13:39:21;;;;;;;0.30;0.30;;;22.60;44.50;;;;;;10352071;28;20056;-54
2024/02/24 13:44:24;;;;;;;1.02;0.40;;;22.60;44.50;;;;;;10359552;28;20046;-54
2024/02/24 13:49:26;;;;;;;0.93;0.40;;;22.60;44.50;;;;;;10360264;28;20050;-53
2024/02/24 13:54:29;;;;;;;0.80;0.40;;;22.80;44.90;;;;;;10360678;28;20049;-54
2024/02/24 13:59:31;;;;;;;2.40;0.60;;;22.90;45.40;;;;;;10362528;28;20045;-56
2024/02/24 14:04:33;;;;;;;5.45;0.60;;;22.80;45.50;;;;;;10358437;28;20050;-57
2024/02/24 14:09:36;;;;;;;6.65;0.60;;;22.90;44.80;;;;;;10358268;28;20053;-57
2024/02/24 14:14:57;;;;;;;3.25;0.63;;;22.90;44.80;;;;;;10361520;28;20071;-59
2024/02/24 14:19:58;;;;;;;3.35;0.80;;;22.90;44.50;;;;;;10370880;28;20058;-58
2024/02/24 14:25:00;;;;;;;9.35;0.90;;;22.90;44.50;;;;;;10355863;28;20062;-56
2024/02/24 14:30:03;;;;;;;7.13;0.80;;;22.90;44.40;;;;;;10352480;28;20100;-56
2024/02/24 14:35:10;;;;;;;2.47;0.70;;;22.90;44.30;;;;;;10351165;28;20046;-57
2024/02/24 14:40:12;;;;;;;6.07;1.17;;;23.00;44.20;;;;;;10355177;28;20054;-56
2024/02/24 14:45:15;;;;;;;4.03;0.70;;;23.10;44.00;;;;;;10354462;28;20504;-56
2024/02/24 14:50:17;;;;;;;5.03;0.70;;;23.10;44.20;;;;;;10359102;28;20055;-58
2024/02/24 14:55:20;;;;;;;1.95;0.95;;;23.20;43.70;;;;;;10361808;28;20064;-57
2024/02/24 15:00:25;;;;;;;6.10;0.80;;;23.20;43.40;;;;;;10362364;28;20133;-55
2024/02/24 15:05:27;;;;;;;4.32;0.90;;;23.20;42.60;;;;;;10354687;28;20107;-57
2024/02/24 15:10:29;;;;;;;5.22;0.70;;;23.20;42.70;;;;;;10355417;28;20050;-55
2024/02/24 15:15:32;;;;;;;2.95;0.85;;;23.10;42.90;;;;;;10354068;28;20054;-57
2024/02/24 15:20:33;;;;;;;9.70;0.75;;;23.30;42.90;;;;;;10350842;28;20050;-55
2024/02/24 15:25:35;;;;;;;2.13;0.80;;;23.20;42.80;;;;;;10355350;28;20050;-57
2024/02/24 15:30:39;;;;;;;2.78;0.90;;;23.20;42.80;;;;;;10357447;28;20056;-58
2024/02/24 15:35:41;;;;;;;4.25;1.15;;;23.20;42.80;;;;;;10355769;28;20172;-58
2024/02/24 15:40:42;;;;;;;2.78;0.70;;;23.20;42.70;;;;;;10354535;28;20160;-58
2024/02/24 15:45:46;;;;;;;2.50;0.80;;;23.20;42.60;;;;;;10350162;28;20056;-55
2024/02/24 15:50:47;;;;;;;3.88;0.60;;;23.20;42.10;;;;;;10359894;28;20058;-56
2024/02/24 15:55:49;;;;;;;2.95;0.80;;;23.30;41.50;;;;;;10363055;28;20392;-58
2024/02/24 16:00:52;;;;;;;2.38;0.82;;;23.30;40.90;;;;;;10358016;28;20054;-59
2024/02/24 16:05:54;;;;;;;4.63;0.88;;;23.50;40.10;;;;;;10361669;28;20049;-57
2024/02/24 16:10:56;;;;;;;5.30;1.08;;;23.40;40.10;;;;;;10364235;28;20045;-57
2024/02/24 16:16:00;;;;;;;7.13;0.85;;;23.40;39.90;;;;;;10366726;28;20129;-58
2024/02/24 16:21:01;;;;;;;5.97;0.82;;;23.40;40.20;;;;;;10361805;28;20058;-58
2024/02/24 16:26:03;;;;;;;2.17;0.85;;;23.20;40.30;;;;;;10359015;28;20107;-56
2024/02/24 16:31:06;;;;;;;5.25;1.58;;;23.20;40.70;;;;;;10355132;28;20408;-57
2024/02/24 16:36:08;;;;;;;3.90;1.10;;;23.30;40.80;;;;;;10363940;28;20412;-57
2024/02/24 16:41:09;;;;;;;4.78;1.10;;;23.30;40.90;;;;;;10361585;28;20069;-55
2024/02/24 16:46:13;;;;;;;3.47;1.00;;;23.40;40.90;;;;;;10360895;28;20058;-58
2024/02/24 16:51:15;;;;;;;3.15;1.02;;;23.30;40.70;;;;;;10360172;28;20042;-58
2024/02/24 16:56:16;;;;;;;3.38;0.82;;;23.40;40.90;;;;;;10355326;28;20046;-58
2024/02/24 17:01:21;;;;;;;3.50;0.80;;;23.40;40.90;;;;;;10355978;28;20053;-55
2024/02/24 17:06:22;;;;;;;4.38;2.35;;;23.40;40.80;;;;;;10355250;28;20554;-58
2024/02/24 17:11:27;;;;;;;2.25;0.88;;;23.40;40.40;;;;;;10361747;28;20431;-57
2024/02/24 17:16:29;;;;;;;6.65;0.93;;;23.50;40.20;;;;;;10361555;28;20578;-58
2024/02/24 17:21:31;;;;;;;3.65;0.82;;;23.40;40.80;;;;;;10360048;28;20049;-58
2024/02/24 17:26:33;;;;;;;12.02;0.90;;;23.50;40.60;;;;;;10362124;28;20072;-59
2024/02/24 17:31:35;;;;;;;2.13;0.70;;;23.40;40.40;;;;;;10357834;28;20056;-55
2024/02/24 17:36:39;;;;;;;4.25;0.90;;;23.40;40.10;;;;;;10356624;28;20051;-55
2024/02/24 17:41:40;;;;;;;3.00;0.90;;;23.40;39.70;;;;;;10352770;28;20050;-60
2024/02/24 17:46:43;;;;;;;5.13;0.88;;;23.50;39.40;;;;;;10359029;28;20052;-57
2024/02/24 17:51:45;;;;;;;2.75;1.00;;;23.60;39.20;;;;;;10364308;28;20046;-59
2024/02/24 17:56:47;;;;;;;5.30;1.05;;;23.60;39.30;;;;;;10362985;28;20068;-58
2024/02/24 18:01:50;;;;;;;1.83;0.93;;;23.50;39.70;;;;;;10358647;28;20074;-60
2024/02/24 18:06:51;;;;;;;4.18;1.10;;;23.50;40.20;;;;;;10353431;28;20054;-60
2024/02/24 18:11:53;;;;;;;4.78;1.05;;;23.60;40.50;;;;;;10353488;28;20054;-59
2024/02/24 18:16:56;;;;;;;4.68;1.00;;;23.60;40.80;;;;;;10347974;28;20531;-58
2024/02/24 18:21:58;;;;;;;5.18;1.00;;;23.60;41.30;;;;;;10334967;28;20095;-57
2024/02/24 18:26:59;;;;;;;17.52;1.67;;;23.60;41.20;;;;;;10349883;28;20412;-59
2024/02/24 18:32:02;;;;;;;17.38;1.70;;;23.80;42.10;;;;;;10357833;28;20336;-59
2024/02/24 18:37:04;;;;;;;10.82;1.35;;;23.80;42.00;;;;;;10355679;28;20068;-57
2024/02/24 18:42:05;;;;;;;13.77;1.92;;;23.70;43.20;;;;;;10359922;28;20059;-57
2024/02/24 18:47:09;;;;;;;12.52;2.22;;;23.80;43.20;;;;;;10356278;28;20054;-58
2024/02/24 18:52:11;;;;;;;9.40;1.52;;;23.80;43.90;;;;;;10354097;28;20057;-56
2024/02/24 18:57:13;;;;;;;4.85;1.65;;;24.00;43.40;;;;;;10353577;28;20046;-58
2024/02/24 19:02:16;;;;;;;7.50;1.30;;;23.90;43.50;;;;;;10350553;28;20046;-57
2024/02/24 19:07:18;;;;;;;7.25;1.98;;;24.10;43.10;;;;;;10356085;28;20519;-58
2024/02/24 19:12:19;;;;;;;11.32;1.88;;;24.30;42.40;;;;;;10353245;28;20117;-58
2024/02/24 19:17:22;;;;;;;4.35;1.40;;;24.20;42.50;;;;;;10352446;28;20496;-56
2024/02/24 19:22:24;;;;;;;8.00;1.48;;;24.30;41.90;;;;;;10349762;28;20564;-57
2024/02/24 19:27:25;;;;;;;7.90;1.70;;;24.30;41.70;;;;;;10346881;28;20070;-54
2024/02/24 19:32:28;;;;;;;7.93;1.60;;;24.50;41.00;;;;;;10356545;28;20042;-58
2024/02/24 19:37:30;;;;;;;2.47;1.20;;;24.10;41.20;;;;;;10363578;28;20052;-55
2024/02/24 19:42:32;;;;;;;5.15;1.27;;;23.80;41.30;;;;;;10359447;28;20056;-57
2024/02/24 19:47:35;;;;;;;1.90;1.13;;;23.60;41.80;;;;;;10361110;28;20054;-56
2024/02/24 19:52:37;;;;;;;2.78;1.08;;;23.40;42.00;;;;;;10358367;28;20556;-59
2024/02/24 19:57:38;;;;;;;8.88;1.48;;;23.80;41.60;;;;;;10355805;28;20045;-56
2024/02/24 20:02:42;;;;;;;4.13;1.40;;;23.80;41.30;;;;;;10357142;28;20050;-57
2024/02/24 20:07:44;;;;;;;3.03;1.40;;;23.60;41.50;;;;;;10352588;28;20055;-56
2024/02/24 20:12:46;;;;;;;2.90;1.25;;;23.30;41.80;;;;;;10350270;28;20196;-54
2024/02/24 20:17:48;;;;;;;4.57;1.20;;;23.40;41.80;;;;;;10351353;28;20069;-56
2024/02/24 20:22:50;;;;;;;2.03;1.30;;;23.50;41.40;;;;;;10349341;28;20517;-58
2024/02/24 20:27:52;;;;;;;2.63;1.42;;;23.30;41.50;;;;;;10350390;28;20056;-58
2024/02/24 20:32:55;;;;;;;2.53;1.10;;;23.30;41.50;;;;;;10350483;28;20046;-55
2024/02/24 20:37:56;;;;;;;3.00;1.30;;;23.20;41.30;;;;;;10358026;28;20050;-58
2024/02/24 20:42:58;;;;;;;2.42;1.25;;;23.10;41.20;;;;;;10359754;28;20457;-58
2024/02/24 20:48:01;;;;;;;2.42;1.15;;;22.70;41.20;;;;;;10356053;28;20129;-57
2024/02/24 20:53:03;;;;;;;2.50;1.30;;;22.90;41.20;;;;;;10362654;28;20050;-58
2024/02/24 20:58:06;;;;;;;3.95;1.20;;;22.90;40.80;;;;;;10361807;28;20052;-57
2024/02/24 21:03:09;;;;;;;6.07;1.17;;;23.00;40.70;;;;;;10363325;28;20042;-58
2024/02/24 21:08:12;;;;;;;5.50;0.90;;;22.90;40.20;;;;;;10358985;28;20535;-54
2024/02/24 21:13:13;;;;;;;3.38;1.08;;;23.00;40.10;;;;;;10361734;28;20052;-52
2024/02/24 21:18:16;;;;;;;2.65;1.00;;;23.00;40.30;;;;;;10360036;28;20129;-51
2024/02/24 21:23:18;;;;;;;6.13;0.88;;;22.80;40.80;;;;;;10354017;28;20046;-55
2024/02/24 21:28:19;;;;;;;2.08;0.88;;;22.80;41.40;;;;;;10349820;28;20131;-53
2024/02/24 21:33:22;;;;;;;3.45;1.00;;;22.80;41.60;;;;;;10349162;28;20057;-54
2024/02/24 21:38:24;;;;;;;2.75;0.90;;;23.00;41.50;;;;;;10344750;28;20096;-52
2024/02/24 21:43:26;;;;;;;11.85;1.27;;;23.10;41.30;;;;;;10352882;28;20048;-55
2024/02/24 21:48:29;;;;;;;2.25;0.82;;;23.20;41.30;;;;;;10355701;28;20046;-55
2024/02/24 21:53:30;;;;;;;5.47;1.67;;;23.30;41.40;;;;;;10356271;28;20041;-54
2024/02/24 21:58:32;;;;;;;5.35;1.77;;;23.10;41.70;;;;;;10358833;28;20050;-52
2024/02/24 22:03:35;;;;;;;2.92;1.67;;;23.30;41.50;;;;;;10363700;28;20054;-50
2024/02/24 22:08:37;;;;;;;4.95;1.55;;;23.40;41.50;;;;;;10353942;28;20054;-50
2024/02/24 22:13:38;;;;;;;5.32;1.65;;;23.50;41.40;;;;;;10354326;28;20091;-56
2024/02/24 22:18:43;;;;;;;3.63;1.90;;;23.60;41.40;;;;;;10355671;28;20045;-53
2024/02/24 22:23:45;;;;;;;5.32;2.20;;;23.60;42.10;;;;;;10356673;28;20059;-52
2024/02/24 22:28:47;;;;;;;3.40;2.20;;;23.60;42.80;;;;;;10357811;28;20054;-53
2024/02/24 22:33:50;;;;;;;5.35;2.60;;;23.50;43.20;;;;;;10351922;28;20097;-53
2024/02/24 22:38:52;;;;;;;3.10;2.20;;;23.60;45.10;;;;;;10347790;28;20048;-54
2024/02/24 22:43:53;;;;;;;7.95;2.92;;;23.80;45.00;;;;;;10345706;28;20614;-54
2024/02/24 22:48:56;;;;;;;4.68;2.80;;;23.60;44.60;;;;;;10348752;28;20542;-56
2024/02/24 22:53:58;;;;;;;5.05;3.03;;;23.80;44.30;;;;;;10353901;28;20046;-57
2024/02/24 22:59:00;;;;;;;4.88;2.63;;;23.80;44.30;;;;;;10350461;28;20041;-57
2024/02/24 23:04:03;;;;;;;4.75;2.97;;;23.70;44.80;;;;;;10351806;28;20049;-55
2024/02/24 23:09:05;;;;;;;6.95;3.45;;;23.90;44.80;;;;;;10355182;28;20056;-56
2024/02/24 23:14:10;;;;;;;5.00;3.90;;;23.70;44.60;;;;;;10352423;28;20675;-56
2024/02/24 23:19:13;;;;;;;7.63;4.40;;;23.70;44.70;;;;;;10349741;28;20046;-57
2024/02/24 23:24:14;;;;;;;5.68;4.10;;;23.70;44.70;;;;;;10358669;28;20489;-58
2024/02/24 23:29:17;;;;;;;6.15;4.20;;;23.70;45.00;;;;;;10355226;28;20052;-56
2024/02/24 23:34:20;;;;;;;5.57;4.00;;;23.80;44.40;;;;;;10354742;28;20053;-57
2024/02/24 23:39:22;;;;;;;5.03;3.80;;;23.80;44.30;;;;;;10356734;28;20042;-57
2024/02/24 23:44:24;;;;;;;4.10;3.70;;;23.70;44.40;;;;;;10354740;28;20057;-57
2024/02/24 23:49:27;;;;;;;4.60;3.92;;;23.70;44.20;;;;;;10350922;28;20057;-57
2024/02/24 23:54:28;;;;;;;4.88;3.85;;;23.70;44.20;;;;;;10351216;28;20046;-57
2024/02/24 23:59:30;;;;;;;3.88;3.58;;;23.70;44.00;;;;;;10359604;28;20042;-58
